Главная страница
METAR-TAF:

METAR-TAF

Аэропорты :

Роскилле, Дания

широта: 55-35N, долгота: 012-08E, высота над уровнем моря: 44 м

Текущие метеонаблюдения

Эта сводка был подготовлена 19 минут назад, в 10:20 UTC
Ветер 6 Узел от юго-восточный
Температура 11°C
Влажность 87%
Давление 1030 hPa
Видимость 10 км и более

METAR: EKRK 151020Z AUTO 14006KT 9999NDV FEW070/// BKN100/// 11/09 Q1030

Время: 11:39 (10:39 UTC)

Прогноз

Эта сводка был подготовлена 1 час и 32 минут назад, в 09:07 UTC
Прогноз действительный с 15-го 09 UTC до 15-го 18 UTC
Ветер 5 Узел от юго-юго-восточный
Видимость: 4000 м
Отдельные облака на высоте 1500 фута
дымка
изменения
С 15-го 09 UTC до 15-го 12 UTC
Видимость: 7000 м
временами
С 15-го 15 UTC до 15-го 18 UTC
Видимость: 4000 м
дымка

TAF: EKRK 150907Z 1509/1518 16005KT 4000 BR SCT015 BECMG 1509/1512 7000 NSW TEMPO 1515/1518 4000 BR

Метеонаблюдения и прогнозы для более 4000 аэропортов (сводки METAR и TAF).

Имеющиеся станции представлены на карте желтыми и красными точками.

Чтобы увидеть название станции, наведите на нее мышь.

Затем щелкните, чтобы увидеть метеонаблюдения и метеопрогнозы.

Управление картой: чтобы увеличить масштаб, щелкните зеленые кнопки с черным крестиком; чтобы уменьшить масштаб, щелкните зеленую кнопку с тире; для просмотра соседних карт щелкайте зеленые стрелки.


METAR-TAF: